Time;durP1;ratioP1;P1;durP2;ratioP2;P2;SDS_P1;SDS_P2;PMS_P1;PMS_P2;Temp;Humidity;BMP_temperature;BMP_pressure;BME280_temperature;BME280_humidity;BME280_pressure;Samples;Min_cycle;Max_cycle;Signal;HPM_P1;HPM_P2
2023/01/24 00:02:11;;;;;;;31.60;23.65;;;3.00;99.90;;;;;;6218032;23;20012;-91
2023/01/24 00:04:37;;;;;;;30.42;23.90;;;3.20;99.90;;;;;;6192552;23;20023;-90
2023/01/24 00:07:02;;;;;;;34.38;24.35;;;3.00;99.90;;;;;;6193041;23;20343;-90
2023/01/24 00:09:28;;;;;;;30.02;23.80;;;3.00;99.90;;;;;;6194462;23;20032;-91
2023/01/24 00:11:53;;;;;;;32.45;24.23;;;3.00;99.90;;;;;;6211469;23;20390;-90
2023/01/24 00:14:19;;;;;;;30.80;24.40;;;3.00;99.90;;;;;;6196194;23;20047;-91
2023/01/24 00:16:45;;;;;;;32.47;24.52;;;3.20;99.90;;;;;;6193177;23;20020;-90
2023/01/24 00:19:10;;;;;;;31.48;24.30;;;3.00;99.90;;;;;;6192022;23;20055;-90
2023/01/24 00:21:36;;;;;;;31.80;24.45;;;3.00;99.90;;;;;;6192289;23;20074;-90
2023/01/24 00:24:02;;;;;;;33.10;24.55;;;3.00;99.90;;;;;;6191991;23;20489;-90
2023/01/24 00:26:27;;;;;;;30.67;23.92;;;3.40;99.90;;;;;;6217104;23;20016;-90
2023/01/24 00:28:53;;;;;;;32.28;24.15;;;3.00;99.90;;;;;;6191487;23;20040;-90
2023/01/24 00:31:19;;;;;;;31.08;24.13;;;3.00;99.90;;;;;;6192340;23;20027;-90
2023/01/24 00:33:45;;;;;;;31.73;24.58;;;3.00;99.90;;;;;;6191880;23;20015;-90
2023/01/24 00:36:11;;;;;;;33.10;25.38;;;3.00;99.90;;;;;;6217667;23;20055;-89
2023/01/24 00:38:37;;;;;;;32.67;25.77;;;3.00;99.90;;;;;;6192371;23;20012;-90
2023/01/24 00:41:03;;;;;;;32.85;25.48;;;3.00;99.90;;;;;;6191628;23;20070;-90
2023/01/24 00:43:29;;;;;;;30.48;24.75;;;2.90;99.90;;;;;;6191501;23;20016;-90
2023/01/24 00:45:55;;;;;;;37.47;26.48;;;3.00;99.90;;;;;;6192363;23;20023;-90
2023/01/24 00:48:20;;;;;;;31.13;24.80;;;3.00;99.90;;;;;;6191393;23;20094;-90
2023/01/24 00:50:46;;;;;;;32.83;26.23;;;2.90;99.90;;;;;;6217670;23;20009;-90
2023/01/24 00:53:12;;;;;;;35.13;25.60;;;3.00;99.90;;;;;;6217669;23;20012;-91
2023/01/24 00:55:45;;;;;;;33.30;25.85;;;3.00;99.90;;;;;;6191458;23;20020;-90
2023/01/24 00:58:11;;;;;;;34.40;27.30;;;2.90;99.90;;;;;;6217153;23;20022;-90
2023/01/24 01:00:38;;;;;;;34.17;26.13;;;3.10;99.90;;;;;;6206923;23;20009;-90
2023/01/24 01:03:06;;;;;;;30.80;26.38;;;2.90;99.90;;;;;;6220716;23;20080;-91
2023/01/24 01:05:32;;;;;;;35.38;26.60;;;2.90;99.90;;;;;;6192010;23;20023;-91
2023/01/24 01:07:57;;;;;;;34.20;26.42;;;2.90;99.90;;;;;;6191742;23;20008;-90
2023/01/24 01:10:23;;;;;;;35.22;27.90;;;2.90;99.90;;;;;;6191491;23;20009;-91
2023/01/24 01:12:48;;;;;;;34.08;27.67;;;2.90;99.90;;;;;;6191118;23;20383;-90
2023/01/24 01:15:14;;;;;;;35.25;28.05;;;2.90;99.90;;;;;;6191076;23;20019;-91
2023/01/24 01:17:40;;;;;;;41.00;29.08;;;2.90;99.90;;;;;;6191158;23;20013;-90
2023/01/24 01:20:06;;;;;;;36.38;27.65;;;2.90;99.90;;;;;;6191328;23;20012;-90
2023/01/24 01:22:32;;;;;;;35.42;28.48;;;2.90;99.90;;;;;;6216964;23;20008;-90
2023/01/24 01:24:58;;;;;;;35.70;27.33;;;2.90;99.90;;;;;;6192119;23;20019;-91
2023/01/24 01:27:24;;;;;;;37.70;28.70;;;2.90;99.90;;;;;;6217260;23;20016;-90
2023/01/24 01:29:49;;;;;;;38.08;28.70;;;2.90;99.90;;;;;;6191534;23;20015;-90
2023/01/24 01:32:15;;;;;;;38.13;28.05;;;2.90;99.90;;;;;;6217981;23;20146;-89
2023/01/24 01:34:41;;;;;;;35.97;28.90;;;2.90;99.90;;;;;;6191413;23;20012;-88
2023/01/24 01:37:06;;;;;;;38.22;28.85;;;2.90;99.90;;;;;;6193687;23;20055;-90
2023/01/24 01:39:32;;;;;;;39.40;28.92;;;3.40;99.90;;;;;;6193116;23;20118;-90
2023/01/24 01:41:57;;;;;;;37.17;28.35;;;2.90;99.90;;;;;;6218648;23;20064;-90
2023/01/24 01:44:49;;;;;;;38.08;29.35;;;2.90;99.90;;;;;;6193651;23;20025;-91
2023/01/24 01:47:36;;;;;;;37.35;28.83;;;2.90;99.90;;;;;;6220236;23;20016;-90
2023/01/24 01:50:05;;;;;;;39.92;30.15;;;2.90;99.90;;;;;;6203540;23;20086;-91
2023/01/24 01:52:35;;;;;;;38.05;29.17;;;3.00;99.90;;;;;;6220119;23;20451;-91
2023/01/24 01:55:07;;;;;;;39.40;29.27;;;2.90;99.90;;;;;;6194417;23;20009;-90
2023/01/24 01:57:35;;;;;;;41.25;29.80;;;2.90;99.90;;;;;;6218847;23;20016;-90
2023/01/24 02:00:08;;;;;;;41.45;29.10;;;2.90;99.90;;;;;;6194277;23;20215;-90
2023/01/24 02:02:36;;;;;;;39.60;29.35;;;2.90;99.90;;;;;;6218704;23;20019;-91
2023/01/24 02:05:07;;;;;;;39.92;30.88;;;2.90;99.90;;;;;;6192616;23;20096;-91
2023/01/24 02:07:53;;;;;;;38.45;29.35;;;2.90;99.90;;;;;;6193325;23;20459;-91
2023/01/24 02:10:22;;;;;;;41.55;29.95;;;2.90;99.90;;;;;;6193433;23;20005;-91
2023/01/24 02:12:51;;;;;;;40.97;28.30;;;2.90;99.90;;;;;;6193157;23;20054;-90
2023/01/24 02:18:07;;;;;;;43.05;29.83;;;2.90;99.90;;;;;;6217116;23;20024;-91
2023/01/24 02:20:41;;;;;;;38.53;29.80;;;2.90;99.90;;;;;;6194388;23;20013;-91
2023/01/24 02:23:18;;;;;;;38.80;28.33;;;2.90;99.90;;;;;;6193087;23;20032;-91
2023/01/24 02:25:46;;;;;;;37.85;28.88;;;2.90;99.90;;;;;;6193297;23;20083;-91
2023/01/24 02:28:12;;;;;;;36.38;28.20;;;2.90;99.90;;;;;;6193331;23;20039;-90
2023/01/24 02:30:38;;;;;;;39.88;28.85;;;2.90;99.90;;;;;;6193454;23;20017;-90
2023/01/24 02:33:17;;;;;;;38.97;29.33;;;2.90;99.90;;;;;;6193286;23;20019;-91
2023/01/24 02:35:43;;;;;;;41.75;28.95;;;3.00;99.90;;;;;;6200389;23;20009;-89
2023/01/24 02:38:15;;;;;;;36.90;28.65;;;2.90;99.90;;;;;;6203297;23;20019;-90
2023/01/24 02:40:41;;;;;;;38.92;30.35;;;2.90;99.90;;;;;;6219184;23;20093;-91
2023/01/24 02:43:07;;;;;;;39.75;28.75;;;2.90;99.90;;;;;;6193742;23;20016;-91
2023/01/24 02:45:34;;;;;;;38.58;28.48;;;2.90;99.90;;;;;;6193989;23;20020;-91
2023/01/24 02:47:59;;;;;;;38.10;29.33;;;2.90;99.90;;;;;;6193127;23;20009;-90
2023/01/24 02:50:28;;;;;;;40.22;29.27;;;2.90;99.90;;;;;;6194345;23;20009;-89
2023/01/24 02:58:23;;;;;;;34.05;28.15;;;2.90;99.90;;;;;;6220603;23;20021;-90
2023/01/24 03:00:48;;;;;;;36.72;28.30;;;2.90;99.90;;;;;;6219182;23;20016;-91
2023/01/24 03:03:15;;;;;;;34.58;28.30;;;2.90;99.90;;;;;;6218690;23;20012;-91
2023/01/24 03:05:56;;;;;;;36.47;28.80;;;2.90;99.90;;;;;;6218924;23;20024;-91
2023/01/24 03:08:31;;;;;;;39.63;28.75;;;2.90;99.90;;;;;;6192034;23;20013;-91
2023/01/24 03:10:57;;;;;;;40.40;28.40;;;2.90;99.90;;;;;;6192877;23;20035;-90
2023/01/24 03:35:21;;;;;;;35.00;28.00;;;2.90;99.90;;;;;;6219820;23;20023;-91
2023/01/24 03:40:31;;;;;;;36.75;27.73;;;2.90;99.90;;;;;;6217965;23;20028;-91
2023/01/24 03:42:56;;;;;;;35.25;27.63;;;2.90;99.90;;;;;;6218110;23;20040;-91
2023/01/24 03:45:34;;;;;;;35.03;27.25;;;2.90;99.90;;;;;;6217486;23;20012;-91
2023/01/24 03:48:02;;;;;;;35.28;27.73;;;2.90;99.90;;;;;;6192085;23;20009;-90
2023/01/24 03:53:26;;;;;;;33.05;26.30;;;2.90;99.90;;;;;;6217514;23;20020;-91
2023/01/24 03:56:00;;;;;;;35.40;26.25;;;2.90;99.90;;;;;;6192132;23;20008;-90
2023/01/24 03:58:28;;;;;;;33.20;26.25;;;2.90;99.90;;;;;;6191713;23;20009;-90
2023/01/24 04:00:54;;;;;;;33.90;27.05;;;2.90;99.90;;;;;;6217580;23;20454;-91
2023/01/24 04:03:20;;;;;;;30.90;24.90;;;2.90;99.90;;;;;;6218369;23;20074;-89
2023/01/24 04:05:47;;;;;;;30.25;24.90;;;2.90;99.90;;;;;;6218524;23;20012;-90
2023/01/24 04:08:13;;;;;;;28.05;24.05;;;3.00;99.90;;;;;;6191826;23;20013;-91
2023/01/24 04:10:38;;;;;;;30.05;24.67;;;2.90;99.90;;;;;;6194820;23;20013;-90
2023/01/24 04:13:04;;;;;;;29.23;24.55;;;2.90;99.90;;;;;;6202076;23;20028;-91
2023/01/24 04:15:31;;;;;;;28.58;23.98;;;2.90;99.90;;;;;;6192217;23;20008;-91
2023/01/24 04:17:59;;;;;;;26.88;22.10;;;2.90;99.90;;;;;;6191993;23;20016;-91
2023/01/24 04:20:27;;;;;;;26.83;22.05;;;3.10;99.90;;;;;;6218118;23;20012;-90
2023/01/24 04:22:52;;;;;;;29.02;22.35;;;3.00;99.90;;;;;;6192549;23;20149;-91
2023/01/24 04:25:18;;;;;;;25.02;21.13;;;2.90;99.90;;;;;;6191915;23;20080;-90
2023/01/24 04:27:44;;;;;;;23.63;20.98;;;2.90;99.90;;;;;;6217647;23;20013;-91
2023/01/24 04:30:12;;;;;;;24.23;20.52;;;2.90;99.90;;;;;;6192031;23;20094;-91
2023/01/24 04:32:38;;;;;;;26.80;21.95;;;3.00;99.90;;;;;;6191618;23;20040;-91
2023/01/24 04:35:05;;;;;;;25.17;21.88;;;3.00;99.90;;;;;;6192423;23;20031;-91
2023/01/24 04:37:32;;;;;;;24.02;21.38;;;3.00;99.90;;;;;;6192908;23;20020;-91
2023/01/24 04:39:58;;;;;;;26.20;22.88;;;3.10;99.90;;;;;;6191860;23;20084;-90
2023/01/24 04:42:23;;;;;;;28.00;22.42;;;3.00;99.90;;;;;;6191793;23;20103;-90
2023/01/24 04:44:49;;;;;;;28.85;22.30;;;2.90;99.90;;;;;;6192767;23;20154;-91
2023/01/24 04:47:15;;;;;;;24.83;21.75;;;3.00;99.90;;;;;;6217037;23;20091;-91
2023/01/24 04:49:41;;;;;;;24.77;21.92;;;2.90;99.90;;;;;;6191385;23;20470;-91
2023/01/24 04:52:12;;;;;;;25.63;21.73;;;3.00;99.90;;;;;;6192851;23;20012;-91
2023/01/24 04:54:41;;;;;;;27.60;22.42;;;2.90;99.90;;;;;;6192005;23;20070;-90
2023/01/24 04:57:10;;;;;;;26.25;22.17;;;2.90;99.90;;;;;;6191740;23;20091;-91
2023/01/24 04:59:36;;;;;;;27.58;23.38;;;2.90;99.90;;;;;;6199299;23;20019;-91
2023/01/24 05:02:01;;;;;;;26.92;23.05;;;3.00;99.90;;;;;;6198559;23;20012;-89
2023/01/24 05:04:27;;;;;;;28.25;22.50;;;3.00;99.90;;;;;;6191757;23;20019;-91
2023/01/24 05:06:53;;;;;;;27.60;23.27;;;3.00;99.90;;;;;;6191179;23;20317;-91
2023/01/24 05:09:18;;;;;;;29.20;24.33;;;3.00;99.90;;;;;;6217459;23;20368;-90
2023/01/24 05:11:44;;;;;;;29.25;24.58;;;3.00;99.90;;;;;;6191775;23;20474;-91
2023/01/24 05:14:10;;;;;;;29.75;24.83;;;2.90;99.90;;;;;;6191989;23;20019;-88
2023/01/24 05:16:36;;;;;;;29.15;24.38;;;2.90;99.90;;;;;;6191561;23;20087;-91
2023/01/24 05:19:02;;;;;;;27.35;22.70;;;2.90;99.90;;;;;;6191119;23;20012;-91
2023/01/24 05:21:28;;;;;;;28.58;23.08;;;2.90;99.90;;;;;;6217039;23;20016;-91
2023/01/24 05:23:54;;;;;;;29.33;23.60;;;3.70;99.90;;;;;;6192079;23;20023;-89
2023/01/24 05:26:21;;;;;;;31.65;25.45;;;2.90;99.90;;;;;;6216198;23;20016;-90
2023/01/24 05:28:48;;;;;;;26.52;23.23;;;2.90;99.90;;;;;;6191516;23;20343;-88
2023/01/24 05:31:14;;;;;;;27.77;22.92;;;2.90;99.90;;;;;;6188302;23;20004;-85
2023/01/24 05:33:40;;;;;;;26.42;21.90;;;3.00;99.90;;;;;;6215401;23;20321;-89
2023/01/24 05:36:18;;;;;;;27.35;22.17;;;2.90;99.90;;;;;;6190686;23;20075;-89
2023/01/24 05:38:44;;;;;;;25.55;21.45;;;2.90;99.90;;;;;;6191698;23;20023;-89
2023/01/24 05:41:12;;;;;;;26.77;21.83;;;2.90;99.90;;;;;;6191759;23;20048;-89
2023/01/24 05:43:38;;;;;;;26.60;22.42;;;2.90;99.90;;;;;;6215482;23;20469;-89
2023/01/24 05:46:06;;;;;;;27.50;24.00;;;2.90;99.90;;;;;;6216844;23;20075;-89
2023/01/24 05:48:32;;;;;;;28.40;23.58;;;2.90;99.90;;;;;;6201918;23;20042;-88
2023/01/24 05:51:08;;;;;;;26.42;23.02;;;2.80;99.90;;;;;;6217851;23;20016;-88
2023/01/24 05:53:37;;;;;;;29.38;23.63;;;2.90;99.90;;;;;;6191087;23;20431;-89
2023/01/24 05:56:10;;;;;;;27.30;22.90;;;2.90;99.90;;;;;;6192903;23;20044;-88
2023/01/24 05:58:37;;;;;;;26.03;22.17;;;2.80;99.90;;;;;;6191242;23;20019;-87
2023/01/24 06:01:10;;;;;;;28.75;22.88;;;2.90;99.90;;;;;;6191529;23;20012;-88
2023/01/24 06:03:36;;;;;;;;;;;2.80;99.90;;;;;;6193655;23;20017;-89
2023/01/24 06:06:02;;;;;;;25.83;21.90;;;2.80;99.90;;;;;;6192733;23;19920;-90
2023/01/24 06:08:28;;;;;;;27.50;22.73;;;2.80;99.90;;;;;;6217476;23;20167;-89
2023/01/24 06:10:53;;;;;;;22.80;19.17;;;2.80;99.90;;;;;;6191886;23;20017;-90
2023/01/24 06:13:19;;;;;;;24.05;19.58;;;2.80;99.90;;;;;;6216650;23;20009;-90
2023/01/24 06:15:45;;;;;;;24.65;20.33;;;2.80;99.90;;;;;;6194021;23;20019;-90
2023/01/24 06:18:17;;;;;;;25.02;20.90;;;2.90;99.90;;;;;;6195965;23;20013;-90
2023/01/24 06:20:43;;;;;;;23.90;19.60;;;2.80;99.90;;;;;;6222515;23;20047;-90
2023/01/24 06:23:19;;;;;;;23.80;19.77;;;2.80;99.90;;;;;;6223711;23;20040;-90
2023/01/24 06:25:44;;;;;;;24.08;19.30;;;2.80;99.90;;;;;;6223434;23;20005;-89
2023/01/24 06:28:11;;;;;;;23.25;19.30;;;2.80;99.90;;;;;;6199067;23;20394;-89
2023/01/24 06:30:41;;;;;;;24.00;18.95;;;2.80;99.90;;;;;;6197800;23;20016;-90
2023/01/24 06:33:30;;;;;;;24.90;18.88;;;2.80;99.90;;;;;;6224126;23;20064;-90
2023/01/24 06:36:11;;;;;;;22.20;18.67;;;2.80;99.90;;;;;;6232976;23;20012;-90
2023/01/24 06:38:37;;;;;;;21.77;18.52;;;2.80;99.90;;;;;;6224531;23;20020;-90
2023/01/24 06:41:09;;;;;;;22.67;19.33;;;2.80;99.90;;;;;;6196673;23;20095;-90
2023/01/24 06:43:35;;;;;;;22.35;18.23;;;2.80;99.90;;;;;;6197880;23;20013;-90
2023/01/24 06:46:01;;;;;;;23.85;19.63;;;2.80;99.90;;;;;;6223966;23;20088;-91
2023/01/24 06:48:26;;;;;;;23.55;19.40;;;3.00;99.90;;;;;;6197639;23;20012;-91
2023/01/24 06:50:53;;;;;;;25.33;19.17;;;3.10;99.90;;;;;;6198826;23;20024;-90
2023/01/24 06:53:18;;;;;;;22.48;18.40;;;3.00;99.90;;;;;;6197972;23;20008;-91
2023/01/24 06:55:45;;;;;;;23.33;18.92;;;3.30;99.90;;;;;;6198358;23;20024;-90
2023/01/24 06:58:11;;;;;;;21.30;18.15;;;2.80;99.90;;;;;;6219644;23;20017;-90
2023/01/24 07:00:36;;;;;;;22.55;18.15;;;2.80;99.90;;;;;;6189252;23;20096;-90
2023/01/24 07:03:07;;;;;;;19.67;17.30;;;2.80;99.90;;;;;;6189234;23;20055;-91
2023/01/24 07:05:37;;;;;;;21.83;17.45;;;2.80;99.90;;;;;;6189344;23;20023;-91
2023/01/24 07:08:04;;;;;;;21.65;17.70;;;2.80;99.90;;;;;;6189281;23;20058;-90
2023/01/24 07:10:30;;;;;;;21.40;18.05;;;2.80;99.90;;;;;;6189504;23;20013;-90
2023/01/24 07:12:56;;;;;;;22.60;17.90;;;2.80;99.90;;;;;;6189421;23;20063;-91
2023/01/24 07:15:22;;;;;;;22.25;17.98;;;2.80;99.90;;;;;;6189032;23;20004;-90
2023/01/24 07:17:48;;;;;;;21.20;17.45;;;3.30;99.90;;;;;;6190037;23;20017;-91
2023/01/24 07:20:14;;;;;;;21.00;17.48;;;2.80;99.90;;;;;;6217931;23;20017;-91
2023/01/24 07:22:41;;;;;;;19.50;17.40;;;2.80;99.90;;;;;;6206940;23;20013;-91
2023/01/24 07:25:19;;;;;;;22.25;18.13;;;2.80;99.90;;;;;;6216567;23;20015;-91
2023/01/24 07:27:46;;;;;;;23.30;17.80;;;2.90;99.90;;;;;;6214685;23;20064;-91
2023/01/24 07:30:12;;;;;;;22.40;17.25;;;2.80;99.90;;;;;;6189635;23;20023;-91
2023/01/24 07:32:38;;;;;;;22.15;17.73;;;2.80;99.90;;;;;;6189851;23;20012;-90
2023/01/24 07:35:05;;;;;;;24.75;19.60;;;2.80;99.90;;;;;;6214446;23;20019;-90
2023/01/24 07:37:31;;;;;;;24.15;18.23;;;2.80;99.90;;;;;;6214440;23;20068;-91
2023/01/24 07:39:58;;;;;;;26.50;19.85;;;2.80;99.90;;;;;;6214603;23;20016;-91
2023/01/24 07:42:23;;;;;;;23.23;18.83;;;2.80;99.90;;;;;;6214083;23;20013;-91
2023/01/24 07:44:49;;;;;;;22.65;18.85;;;2.80;99.90;;;;;;6188983;23;20020;-90
2023/01/24 07:47:15;;;;;;;21.73;18.63;;;2.70;99.90;;;;;;6189100;23;20020;-90
2023/01/24 07:49:41;;;;;;;25.58;19.35;;;3.10;99.90;;;;;;6213941;23;20008;-91
2023/01/24 07:52:07;;;;;;;21.98;18.35;;;2.80;99.90;;;;;;6188740;23;20503;-90
2023/01/24 07:54:33;;;;;;;21.85;19.08;;;2.70;99.90;;;;;;6214207;23;20015;-91
2023/01/24 07:56:59;;;;;;;21.92;18.13;;;2.70;99.90;;;;;;6188708;23;20013;-91
2023/01/24 07:59:25;;;;;;;23.05;18.88;;;2.80;99.90;;;;;;6213750;23;20019;-91
2023/01/24 08:01:50;;;;;;;21.77;18.02;;;2.80;99.90;;;;;;6189132;23;20020;-91
2023/01/24 08:04:16;;;;;;;21.45;18.20;;;2.80;99.90;;;;;;6214240;23;20016;-91
2023/01/24 08:07:16;;;;;;;24.40;18.92;;;2.70;99.90;;;;;;6193200;23;20016;-91
2023/01/24 08:09:27;;;;;;;23.98;19.08;;;2.80;99.90;;;;;;6218413;23;20020;-91
2023/01/24 08:11:53;;;;;;;23.85;20.00;;;2.80;99.90;;;;;;6214902;23;20004;-91
2023/01/24 08:14:18;;;;;;;23.30;19.35;;;2.80;99.90;;;;;;6188715;23;20056;-91
2023/01/24 08:16:44;;;;;;;22.90;18.85;;;2.80;99.90;;;;;;6214002;23;20020;-91
2023/01/24 08:19:10;;;;;;;21.55;19.20;;;2.80;99.90;;;;;;6214423;23;20013;-91
2023/01/24 08:21:35;;;;;;;23.27;19.58;;;2.70;99.90;;;;;;6188312;23;20047;-91
2023/01/24 08:24:01;;;;;;;23.27;19.40;;;2.80;99.90;;;;;;6188796;23;20047;-91
2023/01/24 08:26:26;;;;;;;24.42;20.25;;;2.80;99.90;;;;;;6214244;23;20091;-91
2023/01/24 08:28:52;;;;;;;23.77;20.50;;;2.80;99.90;;;;;;6188682;23;20012;-91
2023/01/24 08:31:18;;;;;;;24.42;20.95;;;2.80;99.90;;;;;;6188928;23;20005;-91
2023/01/24 08:33:43;;;;;;;24.15;20.95;;;2.80;99.90;;;;;;6214110;23;20095;-90
2023/01/24 08:36:09;;;;;;;25.67;22.10;;;2.80;99.90;;;;;;6188554;23;20016;-91
2023/01/24 08:38:35;;;;;;;27.63;22.02;;;2.80;99.90;;;;;;6188635;23;20082;-91
2023/01/24 08:41:05;;;;;;;23.45;20.90;;;2.80;99.90;;;;;;6213681;23;20054;-90
2023/01/24 08:43:31;;;;;;;25.52;22.00;;;3.40;99.90;;;;;;6187717;23;20029;-91
2023/01/24 08:45:56;;;;;;;25.30;22.52;;;2.90;99.90;;;;;;6213281;23;20009;-90
2023/01/24 08:48:22;;;;;;;25.50;22.80;;;2.80;99.90;;;;;;6188368;23;20139;-90
2023/01/24 08:50:48;;;;;;;26.98;24.08;;;2.80;99.90;;;;;;6214402;23;20131;-91
2023/01/24 08:53:14;;;;;;;26.45;23.48;;;3.00;99.90;;;;;;6219485;23;20039;-90
2023/01/24 08:55:40;;;;;;;28.58;24.48;;;2.80;99.90;;;;;;6216587;23;20008;-90
2023/01/24 08:58:06;;;;;;;27.67;24.75;;;2.80;99.90;;;;;;6213464;23;20558;-91
2023/01/24 09:00:32;;;;;;;27.90;24.98;;;3.10;99.90;;;;;;6188525;23;20423;-90
2023/01/24 09:03:00;;;;;;;27.75;24.75;;;2.80;99.90;;;;;;6188389;23;20016;-90
2023/01/24 09:05:26;;;;;;;28.02;25.02;;;2.80;99.90;;;;;;6214088;23;20334;-90
2023/01/24 09:07:52;;;;;;;27.42;24.40;;;2.80;99.90;;;;;;6213313;23;20032;-90
2023/01/24 09:10:18;;;;;;;27.63;24.73;;;3.00;99.90;;;;;;6213428;23;20024;-90
2023/01/24 09:12:44;;;;;;;28.38;25.08;;;2.80;99.90;;;;;;6213493;23;20008;-90
2023/01/24 09:15:09;;;;;;;27.67;24.58;;;2.90;99.90;;;;;;6188883;23;20009;-90
2023/01/24 09:17:36;;;;;;;29.10;24.98;;;2.90;99.90;;;;;;6188149;23;20118;-89
2023/01/24 09:20:02;;;;;;;28.13;25.13;;;2.90;99.90;;;;;;6213441;23;20432;-90
2023/01/24 09:22:28;;;;;;;28.27;25.38;;;2.90;99.90;;;;;;6188459;23;20023;-90
2023/01/24 09:24:54;;;;;;;29.95;26.70;;;2.90;99.90;;;;;;6191017;23;20013;-90
2023/01/24 09:27:19;;;;;;;28.85;25.70;;;2.90;99.90;;;;;;6187793;23;20021;-89
2023/01/24 09:29:45;;;;;;;28.88;25.77;;;2.90;99.90;;;;;;6188364;23;20027;-89
2023/01/24 09:32:12;;;;;;;28.52;25.52;;;3.00;99.90;;;;;;6188358;23;20012;-90
2023/01/24 09:34:40;;;;;;;28.50;25.02;;;3.00;99.90;;;;;;6188419;23;20158;-90
2023/01/24 09:37:06;;;;;;;28.42;25.48;;;2.90;99.90;;;;;;6214157;23;20063;-90
2023/01/24 09:39:31;;;;;;;27.95;25.00;;;3.00;99.90;;;;;;6195239;23;20012;-91
2023/01/24 09:42:11;;;;;;;28.60;25.60;;;3.30;99.90;;;;;;6213896;23;20012;-90
2023/01/24 09:45:03;;;;;;;27.98;25.08;;;3.00;99.90;;;;;;6188604;23;20028;-90
2023/01/24 09:47:47;;;;;;;28.38;25.00;;;3.00;99.90;;;;;;6187791;23;20035;-90
2023/01/24 09:50:33;;;;;;;27.27;24.35;;;3.00;99.90;;;;;;6188061;23;20061;-90
2023/01/24 09:52:59;;;;;;;28.08;25.08;;;3.00;99.90;;;;;;6187850;23;20020;-90
2023/01/24 09:55:26;;;;;;;28.30;25.20;;;3.10;99.90;;;;;;6187521;23;20005;-90
2023/01/24 09:58:01;;;;;;;27.60;24.73;;;3.00;99.90;;;;;;6190005;23;20021;-90
2023/01/24 10:00:29;;;;;;;27.55;24.73;;;3.10;99.90;;;;;;6190140;23;20014;-90
2023/01/24 10:02:58;;;;;;;26.27;23.20;;;3.10;99.90;;;;;;6190173;23;20318;-90
2023/01/24 10:05:32;;;;;;;26.15;23.08;;;3.10;99.90;;;;;;6189809;23;20087;-91
2023/01/24 10:08:03;;;;;;;25.98;23.13;;;3.10;99.90;;;;;;6189934;23;20024;-90
2023/01/24 10:11:01;;;;;;;27.17;24.38;;;3.10;99.90;;;;;;6215252;23;20032;-89
2023/01/24 10:13:50;;;;;;;27.00;22.52;;;3.10;99.90;;;;;;6190366;23;20023;-90
2023/01/24 10:16:45;;;;;;;25.55;22.80;;;3.10;99.90;;;;;;6190050;23;20012;-90
2023/01/24 10:19:40;;;;;;;25.60;22.17;;;3.10;99.90;;;;;;6201099;23;20107;-89
2023/01/24 10:22:44;;;;;;;24.25;21.75;;;3.10;99.90;;;;;;6215236;23;20087;-90
2023/01/24 10:25:18;;;;;;;23.95;21.35;;;3.20;99.90;;;;;;6222663;23;20025;-90
2023/01/24 10:27:46;;;;;;;28.67;22.42;;;3.10;99.90;;;;;;6191208;23;20013;-90
2023/01/24 10:30:25;;;;;;;23.38;20.88;;;3.40;99.90;;;;;;6189741;23;20078;-90
2023/01/24 10:32:55;;;;;;;25.83;22.70;;;3.20;99.90;;;;;;6215081;23;20300;-90
2023/01/24 10:35:33;;;;;;;24.85;21.65;;;3.70;99.90;;;;;;6189476;23;20028;-90
2023/01/24 10:38:04;;;;;;;22.83;20.33;;;3.20;99.90;;;;;;6189575;23;20008;-89
2023/01/24 10:40:29;;;;;;;23.98;21.38;;;3.30;99.90;;;;;;6189441;23;20091;-90
2023/01/24 10:42:55;;;;;;;25.13;22.50;;;3.60;99.90;;;;;;6214155;23;20055;-90
2023/01/24 10:45:55;;;;;;;25.33;22.25;;;3.30;99.90;;;;;;6189352;23;20020;-90
2023/01/24 10:48:44;;;;;;;24.10;21.50;;;3.20;99.90;;;;;;6189249;23;20013;-90
2023/01/24 10:51:22;;;;;;;25.88;21.35;;;3.30;99.90;;;;;;6215006;23;20108;-91
2023/01/24 10:53:48;;;;;;;24.80;22.02;;;3.30;99.90;;;;;;6188977;23;20040;-90
2023/01/24 10:56:16;;;;;;;25.42;22.67;;;3.30;99.90;;;;;;6214764;23;20309;-89
2023/01/24 10:59:04;;;;;;;26.48;23.67;;;3.30;99.90;;;;;;6215088;23;20015;-90
2023/01/24 11:01:37;;;;;;;26.50;22.48;;;3.30;99.90;;;;;;6214678;23;20028;-90
2023/01/24 11:04:41;;;;;;;24.55;21.95;;;3.40;99.90;;;;;;6189759;23;20390;-90
2023/01/24 11:07:28;;;;;;;26.20;22.63;;;3.50;99.90;;;;;;6046540;23;20168;-90
2023/01/24 11:09:53;;;;;;;25.40;22.70;;;3.30;99.90;;;;;;6053525;23;20034;-89
2023/01/24 11:12:20;;;;;;;26.05;23.35;;;3.60;99.90;;;;;;6050860;23;20022;-90
2023/01/24 11:14:48;;;;;;;26.00;22.95;;;3.30;99.90;;;;;;6046815;23;20014;-90
2023/01/24 11:17:38;;;;;;;26.15;23.40;;;3.30;99.90;;;;;;6070643;23;20019;-90
2023/01/24 11:20:32;;;;;;;27.02;23.90;;;3.50;99.90;;;;;;6094334;23;20449;-90
2023/01/24 11:23:16;;;;;;;27.40;23.20;;;3.50;99.90;;;;;;6043941;23;20026;-90
2023/01/24 11:25:57;;;;;;;26.45;23.65;;;3.30;99.90;;;;;;6070715;23;20053;-90
2023/01/24 11:28:34;;;;;;;28.48;25.48;;;3.40;99.90;;;;;;6047116;23;20089;-90
2023/01/24 11:31:06;;;;;;;27.08;24.33;;;3.40;99.90;;;;;;6070175;23;20014;-90
2023/01/24 11:34:02;;;;;;;28.30;25.23;;;3.40;99.90;;;;;;6046525;23;20029;-90
2023/01/24 11:37:04;;;;;;;28.17;24.48;;;3.40;99.90;;;;;;6045981;23;20457;-90
2023/01/24 11:39:36;;;;;;;27.67;24.67;;;3.40;99.90;;;;;;6199496;23;20027;-90
2023/01/24 11:42:53;;;;;;;27.55;24.25;;;3.40;99.90;;;;;;6214496;23;20005;-90
2023/01/24 11:45:43;;;;;;;29.38;25.65;;;3.40;99.90;;;;;;6046982;23;20022;-90
2023/01/24 11:48:33;;;;;;;28.17;25.17;;;3.50;99.90;;;;;;6046779;23;20022;-90
2023/01/24 11:51:09;;;;;;;27.42;24.52;;;3.40;99.90;;;;;;6046590;23;20014;-90
2023/01/24 11:53:46;;;;;;;28.45;25.52;;;3.50;99.90;;;;;;6071339;23;20033;-90
2023/01/24 11:56:37;;;;;;;27.60;24.58;;;3.40;99.90;;;;;;6062154;23;20480;-90
2023/01/24 11:59:30;;;;;;;27.55;24.75;;;3.50;99.90;;;;;;6047881;23;20421;-89
2023/01/24 12:02:23;;;;;;;27.75;24.58;;;3.50;99.90;;;;;;6069982;23;20049;-89
2023/01/24 12:05:03;;;;;;;26.13;23.33;;;3.50;99.90;;;;;;6045921;23;20437;-90
2023/01/24 12:07:44;;;;;;;26.15;23.25;;;3.50;99.90;;;;;;6046630;23;20102;-89
2023/01/24 12:10:19;;;;;;;27.42;24.13;;;3.50;99.90;;;;;;6046262;23;20353;-90
2023/01/24 12:12:51;;;;;;;30.52;25.80;;;3.50;99.90;;;;;;6046764;23;20030;-90
2023/01/24 12:15:31;;;;;;;27.63;24.23;;;3.50;99.90;;;;;;6079463;23;20043;-89
2023/01/24 12:18:23;;;;;;;27.33;24.30;;;3.50;99.90;;;;;;6188279;23;20013;-90
2023/01/24 12:20:59;;;;;;;26.77;22.92;;;3.50;99.90;;;;;;6188434;23;20017;-90
2023/01/24 12:23:41;;;;;;;26.10;23.30;;;3.50;99.90;;;;;;6188136;23;20013;-90
2023/01/24 12:26:24;;;;;;;25.10;22.02;;;3.50;99.90;;;;;;6213694;23;20024;-90
2023/01/24 12:28:56;;;;;;;26.63;22.73;;;3.50;99.90;;;;;;6214122;23;20016;-90
2023/01/24 12:31:39;;;;;;;26.60;22.80;;;3.40;99.90;;;;;;6188416;23;20008;-90
2023/01/24 12:34:24;;;;;;;25.83;23.13;;;3.50;99.90;;;;;;6213376;23;20015;-90
2023/01/24 12:37:18;;;;;;;28.48;25.08;;;3.40;99.90;;;;;;6214016;23;20017;-90
2023/01/24 12:40:13;;;;;;;27.60;23.75;;;3.50;99.90;;;;;;6183500;23;20114;-90
2023/01/24 12:42:44;;;;;;;27.88;24.17;;;3.40;99.90;;;;;;6191274;23;20024;-90
2023/01/24 12:45:18;;;;;;;27.85;24.60;;;3.40;99.90;;;;;;6188305;23;20017;-90
2023/01/24 12:47:55;;;;;;;27.73;23.70;;;3.40;99.90;;;;;;6214116;23;20048;-90
2023/01/24 12:50:30;;;;;;;26.60;23.73;;;3.40;99.90;;;;;;6188030;23;20012;-90
2023/01/24 12:53:01;;;;;;;27.40;23.77;;;3.40;99.90;;;;;;6213626;23;20062;-90
2023/01/24 12:56:00;;;;;;;26.73;23.73;;;3.40;99.90;;;;;;6213472;23;20009;-89
2023/01/24 12:58:48;;;;;;;26.35;23.55;;;3.40;99.90;;;;;;6188078;23;20095;-90
2023/01/24 13:01:35;;;;;;;27.17;24.27;;;3.40;99.90;;;;;;6188678;23;20011;-90
2023/01/24 13:04:21;;;;;;;28.80;25.10;;;3.30;99.90;;;;;;6212857;23;20019;-90
2023/01/24 13:06:59;;;;;;;28.55;25.50;;;3.30;99.90;;;;;;6188346;23;20021;-90
2023/01/24 13:09:42;;;;;;;30.73;26.15;;;3.30;99.90;;;;;;6213425;23;20031;-90
2023/01/24 13:12:16;;;;;;;30.48;25.95;;;3.30;99.90;;;;;;6213447;23;20424;-90
2023/01/24 13:14:58;;;;;;;;;;;3.30;99.90;;;;;;6189517;23;20048;-90
2023/01/24 13:17:47;;;;;;;27.77;24.55;;;3.30;99.90;;;;;;6213174;23;19990;-90
2023/01/24 13:20:40;;;;;;;28.92;24.90;;;3.40;99.90;;;;;;6187999;23;20098;-90
2023/01/24 13:23:42;;;;;;;28.83;24.73;;;3.30;99.90;;;;;;6213622;23;20052;-90
2023/01/24 13:26:16;;;;;;;27.02;24.08;;;3.30;99.90;;;;;;6200281;23;20013;-90
2023/01/24 13:29:08;;;;;;;30.05;25.75;;;3.30;99.90;;;;;;6218927;23;20017;-90
2023/01/24 13:31:57;;;;;;;27.90;23.75;;;3.50;99.90;;;;;;6216796;23;20008;-90
2023/01/24 13:34:31;;;;;;;27.05;23.67;;;3.30;99.90;;;;;;6191363;23;20095;-90
2023/01/24 13:36:58;;;;;;;27.30;23.95;;;3.40;99.90;;;;;;6191474;23;20048;-90